createdAt,value
2022-11-20T00:02:12.532Z,15.82
2022-11-20T00:05:15.808Z,14.90
2022-11-20T00:08:18.355Z,15.00
2022-11-20T00:11:23.450Z,15.02
2022-11-20T00:14:26.048Z,16.37
2022-11-20T00:17:29.175Z,16.23
2022-11-20T00:20:31.741Z,15.70
2022-11-20T00:23:35.240Z,16.83
2022-11-20T00:26:38.113Z,15.52
2022-11-20T00:32:43.451Z,14.85
2022-11-20T00:35:46.533Z,15.43
2022-11-20T00:38:56.520Z,15.03
2022-11-20T00:41:59.796Z,15.30
2022-11-20T00:45:02.338Z,14.70
2022-11-20T00:48:05.696Z,14.57
2022-11-20T00:51:08.255Z,15.80
2022-11-20T00:54:11.371Z,15.13
2022-11-20T00:57:13.942Z,16.17
2022-11-20T01:00:17.140Z,16.80
2022-11-20T01:03:24.236Z,15.60
2022-11-20T01:06:38.482Z,15.50
2022-11-20T01:09:40.962Z,16.20
2022-11-20T01:12:44.233Z,16.10
2022-11-20T01:15:46.787Z,17.30
2022-11-20T01:18:53.059Z,17.00
2022-11-20T01:21:55.631Z,18.87
2022-11-20T01:24:58.677Z,18.17
2022-11-20T01:28:01.163Z,18.10
2022-11-20T01:31:19.432Z,17.92
2022-11-20T01:34:23.383Z,17.95
2022-11-20T01:37:26.501Z,19.95
2022-11-20T01:40:28.946Z,19.40
2022-11-20T01:43:32.027Z,18.95
2022-11-20T01:46:37.898Z,18.12
2022-11-20T01:49:51.584Z,20.25
2022-11-20T01:53:00.330Z,18.40
2022-11-20T01:56:08.556Z,20.58
2022-11-20T01:59:14.327Z,19.98
2022-11-20T02:02:17.425Z,21.67
2022-11-20T02:05:43.087Z,20.88
2022-11-20T02:08:45.793Z,20.62
2022-11-20T02:11:48.631Z,19.65
2022-11-20T02:14:51.444Z,22.05
2022-11-20T02:17:54.941Z,20.33
2022-11-20T02:21:07.482Z,21.45
2022-11-20T02:24:18.126Z,21.45
2022-11-20T02:27:22.011Z,21.33
2022-11-20T02:30:25.112Z,23.52
2022-11-20T02:33:27.985Z,21.20
2022-11-20T02:36:33.141Z,22.65
2022-11-20T02:39:35.879Z,22.23
2022-11-20T02:42:38.758Z,22.30
2022-11-20T02:45:41.583Z,22.52
2022-11-20T02:48:44.347Z,21.60
2022-11-20T02:51:47.086Z,20.62
2022-11-20T02:54:49.905Z,19.75
2022-11-20T02:57:52.692Z,20.35
2022-11-20T03:00:55.559Z,18.85
2022-11-20T03:03:59.562Z,21.52
2022-11-20T03:07:02.447Z,22.25
2022-11-20T03:10:06.211Z,20.48
2022-11-20T03:13:09.007Z,19.27
2022-11-20T03:16:14.481Z,20.83
2022-11-20T03:19:19.678Z,19.37
2022-11-20T03:22:22.595Z,20.98
2022-11-20T03:25:25.361Z,19.27
2022-11-20T03:28:28.140Z,18.37
2022-11-20T03:31:38.923Z,19.87
2022-11-20T03:34:41.831Z,19.40
2022-11-20T03:37:44.746Z,19.95
2022-11-20T03:40:47.532Z,21.12
2022-11-20T03:43:50.995Z,19.33
2022-11-20T03:46:53.773Z,19.70
2022-11-20T03:49:56.563Z,18.33
2022-11-20T03:52:59.330Z,19.30
2022-11-20T03:56:02.184Z,17.67
2022-11-20T03:59:05.414Z,19.08
2022-11-20T04:05:11.481Z,17.92
2022-11-20T04:08:14.048Z,18.15
2022-11-20T04:11:27.514Z,19.02
2022-11-20T04:14:30.039Z,17.92
2022-11-20T04:17:33.091Z,20.33
2022-11-20T04:20:36.466Z,18.55
2022-11-20T04:23:40.127Z,20.27
2022-11-20T04:26:42.790Z,18.33
2022-11-20T04:29:45.831Z,19.35
2022-11-20T04:32:48.285Z,19.35
2022-11-20T04:35:51.341Z,21.30
2022-11-20T04:38:57.362Z,22.98
2022-11-20T04:42:19.190Z,20.58
2022-11-20T04:45:22.999Z,19.55
2022-11-20T04:48:28.034Z,18.98
2022-11-20T04:51:30.570Z,19.20
2022-11-20T04:54:33.691Z,19.02
2022-11-20T04:57:36.182Z,18.87
2022-11-20T05:00:39.344Z,20.45
2022-11-20T05:03:43.605Z,17.93
2022-11-20T05:06:46.708Z,20.27
2022-11-20T05:09:49.186Z,19.30
2022-11-20T05:12:52.612Z,20.05
2022-11-20T05:15:55.099Z,19.92
2022-11-20T05:18:58.432Z,19.80
2022-11-20T05:22:00.943Z,18.98
2022-11-20T05:25:04.170Z,19.30
2022-11-20T05:28:06.836Z,18.00
2022-11-20T05:31:15.831Z,19.17
2022-11-20T05:34:18.270Z,19.27
2022-11-20T05:37:21.462Z,19.23
2022-11-20T05:40:23.975Z,19.45
2022-11-20T05:43:27.180Z,18.55
2022-11-20T05:46:29.918Z,19.25
2022-11-20T05:49:33.452Z,19.90
2022-11-20T05:52:35.928Z,19.77
2022-11-20T05:55:38.977Z,19.35
2022-11-20T05:58:41.792Z,17.60
2022-11-20T06:01:44.859Z,19.73
2022-11-20T06:04:47.677Z,18.25
2022-11-20T06:07:50.527Z,18.87
2022-11-20T06:10:53.355Z,19.42
2022-11-20T06:13:56.357Z,19.87
2022-11-20T06:16:59.347Z,18.05
2022-11-20T06:20:02.536Z,17.65
2022-11-20T06:23:05.283Z,21.05
2022-11-20T06:26:13.437Z,19.25
2022-11-20T06:29:16.271Z,17.17
2022-11-20T06:32:19.061Z,18.17
2022-11-20T06:35:22.015Z,17.67
2022-11-20T06:38:28.772Z,19.05
2022-11-20T06:41:31.568Z,18.60
2022-11-20T06:44:34.469Z,17.33
2022-11-20T06:47:37.458Z,17.02
2022-11-20T06:50:40.328Z,17.52
2022-11-20T06:53:43.094Z,17.00
2022-11-20T06:56:49.173Z,18.33
2022-11-20T06:59:51.970Z,17.25
2022-11-20T07:02:54.963Z,18.27
2022-11-20T07:06:00.954Z,17.52
2022-11-20T07:09:06.365Z,18.58
2022-11-20T07:12:11.356Z,17.00
2022-11-20T07:15:14.156Z,17.05
2022-11-20T07:18:16.960Z,16.95
2022-11-20T07:21:19.769Z,17.50
2022-11-20T07:24:22.580Z,16.37
2022-11-20T07:27:25.380Z,17.58
2022-11-20T07:30:31.359Z,17.83
2022-11-20T07:33:34.163Z,17.70
2022-11-20T07:36:37.007Z,18.30
2022-11-20T07:39:39.876Z,24.17
2022-11-20T07:42:56.667Z,27.30
2022-11-20T07:46:00.236Z,18.60
2022-11-20T07:52:05.619Z,18.15
2022-11-20T07:55:09.694Z,16.60
2022-11-20T07:58:12.616Z,20.42
2022-11-20T08:01:15.582Z,21.92
2022-11-20T08:04:18.699Z,22.85
2022-11-20T08:07:22.007Z,18.80
2022-11-20T08:10:26.691Z,21.40
2022-11-20T08:13:48.001Z,16.80
2022-11-20T08:16:51.150Z,16.87
2022-11-20T08:19:53.612Z,17.37
2022-11-20T08:23:06.615Z,17.90
2022-11-20T08:26:09.417Z,18.12
2022-11-20T08:29:12.495Z,17.83
2022-11-20T08:32:15.094Z,19.57
2022-11-20T08:35:18.341Z,20.42
2022-11-20T08:38:20.839Z,18.67
2022-11-20T08:41:29.556Z,20.25
2022-11-20T08:44:32.014Z,24.77
2022-11-20T08:47:35.047Z,20.50
2022-11-20T08:50:37.565Z,21.20
2022-11-20T08:53:41.370Z,21.62
2022-11-20T08:56:43.902Z,25.73
2022-11-20T09:03:09.785Z,27.92
2022-11-20T09:09:15.627Z,21.42
2022-11-20T09:12:18.691Z,22.17
2022-11-20T09:15:21.133Z,21.05
2022-11-20T09:18:24.905Z,21.67
2022-11-20T09:21:27.496Z,26.33
2022-11-20T09:24:30.982Z,20.55
2022-11-20T09:27:33.643Z,19.52
2022-11-20T09:30:37.026Z,20.15
2022-11-20T09:33:39.558Z,18.23
2022-11-20T09:36:42.596Z,19.80
2022-11-20T09:39:45.068Z,18.65
2022-11-20T09:42:59.735Z,22.65
2022-11-20T09:46:23.816Z,19.35
2022-11-20T09:49:37.847Z,19.52
2022-11-20T09:52:57.782Z,22.80
2022-11-20T09:56:03.547Z,18.92
2022-11-20T09:59:08.689Z,23.27
2022-11-20T10:02:24.123Z,23.25
2022-11-20T10:05:32.454Z,25.65
2022-11-20T10:09:05.783Z,24.17
2022-11-20T10:12:20.555Z,23.20
2022-11-20T10:15:55.811Z,23.55
2022-11-20T10:19:39.615Z,23.70
2022-11-20T10:23:22.741Z,24.33
2022-11-20T10:26:59.428Z,26.10
2022-11-20T10:30:14.811Z,23.83
2022-11-20T10:33:22.665Z,50.83
2022-11-20T10:36:32.034Z,27.95
2022-11-20T10:39:40.959Z,24.45
2022-11-20T10:42:48.369Z,25.10
2022-11-20T10:45:58.414Z,24.67
2022-11-20T10:49:01.230Z,23.20
2022-11-20T10:52:22.198Z,22.35
2022-11-20T10:55:38.920Z,22.27
2022-11-20T10:58:51.781Z,21.10
2022-11-20T11:01:54.531Z,20.73
2022-11-20T11:04:58.647Z,19.42
2022-11-20T11:08:01.538Z,20.37
2022-11-20T11:11:11.372Z,21.25
2022-11-20T11:14:16.167Z,21.70
2022-11-20T11:17:31.628Z,20.37
2022-11-20T11:20:34.485Z,19.85
2022-11-20T11:23:40.654Z,20.88
2022-11-20T11:26:57.265Z,22.48
2022-11-20T11:30:15.271Z,21.70
2022-11-20T11:33:30.078Z,19.95
2022-11-20T11:36:34.500Z,20.37
2022-11-20T11:39:42.243Z,19.27
2022-11-20T11:42:51.327Z,20.80
2022-11-20T11:45:56.236Z,20.73
2022-11-20T11:49:04.746Z,20.85
2022-11-20T11:52:17.258Z,19.98
2022-11-20T11:55:29.871Z,21.95
2022-11-20T11:58:56.504Z,23.55
2022-11-20T12:02:05.283Z,22.27
2022-11-20T12:05:18.939Z,19.92
2022-11-20T12:08:26.069Z,20.62
2022-11-20T12:11:52.174Z,20.48
2022-11-20T12:14:57.181Z,22.62
2022-11-20T12:18:00.968Z,21.45
2022-11-20T12:21:21.342Z,22.23
2022-11-20T12:24:56.399Z,21.58
2022-11-20T12:28:10.996Z,23.65
2022-11-20T12:31:26.349Z,23.33
2022-11-20T12:34:50.913Z,22.52
2022-11-20T12:38:27.984Z,24.25
2022-11-20T12:42:01.672Z,26.37
2022-11-20T12:48:34.588Z,22.73
2022-11-20T12:51:40.839Z,21.05
2022-11-20T12:55:15.774Z,22.75
2022-11-20T12:58:28.851Z,23.80
2022-11-20T13:01:48.733Z,24.42
2022-11-20T13:05:04.275Z,23.98
2022-11-20T13:08:23.518Z,23.92
2022-11-20T13:11:39.149Z,24.25
2022-11-20T13:15:02.264Z,23.52
2022-11-20T13:21:24.377Z,22.10
2022-11-20T13:24:31.207Z,20.70
2022-11-20T13:27:33.739Z,22.05
2022-11-20T13:30:38.193Z,21.80
2022-11-20T13:33:40.712Z,22.15
2022-11-20T13:36:52.664Z,21.92
2022-11-20T13:40:08.954Z,22.02
2022-11-20T13:43:22.451Z,22.62
2022-11-20T13:46:44.922Z,23.25
2022-11-20T13:49:49.425Z,24.27
2022-11-20T13:52:58.176Z,23.20
2022-11-20T13:56:39.799Z,22.20
2022-11-20T13:59:58.288Z,23.60
2022-11-20T14:03:07.274Z,24.80
2022-11-20T14:06:27.011Z,32.22
2022-11-20T14:09:32.386Z,34.33
2022-11-20T14:12:35.397Z,26.37
2022-11-20T14:15:44.742Z,24.95
2022-11-20T14:18:47.783Z,23.52
2022-11-20T14:21:56.089Z,24.37
2022-11-20T14:25:28.092Z,23.23
2022-11-20T14:28:32.337Z,22.67
2022-11-20T14:31:35.177Z,25.30
2022-11-20T14:34:41.580Z,25.20
2022-11-20T14:37:44.507Z,24.25
2022-11-20T14:40:47.356Z,23.45
2022-11-20T14:43:58.069Z,25.30
2022-11-20T14:47:03.577Z,23.67
2022-11-20T14:50:17.134Z,24.90
2022-11-20T14:53:25.383Z,24.12
2022-11-20T14:56:28.273Z,23.90
2022-11-20T14:59:35.877Z,32.45
2022-11-20T15:02:47.251Z,29.98
2022-11-20T15:05:52.176Z,24.52
2022-11-20T15:08:55.267Z,24.40
2022-11-20T15:12:01.285Z,23.80
2022-11-20T15:15:06.201Z,22.73
2022-11-20T15:18:14.278Z,36.25
2022-11-20T15:21:20.061Z,24.92
2022-11-20T15:24:23.041Z,24.45
2022-11-20T15:27:26.245Z,23.98
2022-11-20T15:30:29.256Z,25.15
2022-11-20T15:33:32.914Z,19.73
2022-11-20T15:36:35.694Z,20.62
2022-11-20T15:39:38.729Z,19.85
2022-11-20T15:43:01.688Z,25.10
2022-11-20T15:46:10.189Z,20.53
2022-11-20T15:49:19.905Z,20.00
2022-11-20T15:52:23.099Z,21.20
2022-11-20T15:55:26.059Z,25.23
2022-11-20T15:58:28.989Z,21.40
2022-11-20T16:01:31.867Z,20.62
2022-11-20T16:04:34.691Z,20.20
2022-11-20T16:07:37.652Z,22.25
2022-11-20T16:10:43.999Z,26.52
2022-11-20T16:14:05.692Z,27.33
2022-11-20T16:17:08.609Z,26.58
2022-11-20T16:20:14.577Z,25.00
2022-11-20T16:23:18.210Z,25.58
2022-11-20T16:26:21.811Z,26.15
2022-11-20T16:32:27.225Z,22.48
2022-11-20T16:35:31.855Z,23.10
2022-11-20T16:38:34.769Z,23.17
2022-11-20T16:41:37.656Z,26.08
2022-11-20T16:44:42.027Z,25.62
2022-11-20T16:47:44.976Z,29.15
2022-11-20T16:50:50.630Z,30.02
2022-11-20T16:53:57.874Z,28.17
2022-11-20T16:57:00.723Z,22.48
2022-11-20T17:00:04.322Z,23.20
2022-11-20T17:03:07.684Z,23.65
2022-11-20T17:06:21.040Z,22.85
2022-11-20T17:09:23.890Z,23.77
2022-11-20T17:12:26.648Z,23.83
2022-11-20T17:15:29.505Z,22.00
2022-11-20T17:18:32.550Z,21.08
2022-11-20T17:21:39.366Z,21.37
2022-11-20T17:24:42.481Z,24.45
2022-11-20T17:27:45.285Z,20.20
2022-11-20T17:30:48.338Z,20.40
2022-11-20T17:33:51.458Z,19.90
2022-11-20T17:36:55.549Z,21.23
2022-11-20T17:39:58.713Z,23.90
2022-11-20T17:43:01.725Z,21.10
2022-11-20T17:46:06.781Z,26.00
2022-11-20T17:49:09.786Z,30.10
2022-11-20T17:52:13.006Z,25.98
2022-11-20T17:55:16.154Z,25.85
2022-11-20T17:58:19.083Z,22.52
2022-11-20T18:01:22.707Z,21.80
2022-11-20T18:04:26.439Z,22.55
2022-11-20T18:10:32.660Z,20.80
2022-11-20T18:13:55.188Z,19.75
2022-11-20T18:17:06.922Z,22.07
2022-11-20T18:23:34.143Z,26.20
2022-11-20T18:26:43.862Z,23.25
2022-11-20T18:29:48.814Z,27.00
2022-11-20T18:32:51.414Z,29.35
2022-11-20T18:35:54.657Z,28.67
2022-11-20T18:39:00.027Z,23.02
2022-11-20T18:42:21.920Z,28.55
2022-11-20T18:45:25.994Z,28.92
2022-11-20T18:48:32.120Z,29.92
2022-11-20T18:51:37.029Z,24.60
2022-11-20T18:54:41.063Z,25.90
2022-11-20T18:57:43.718Z,24.45
2022-11-20T19:00:46.830Z,27.45
2022-11-20T19:03:49.405Z,25.87
2022-11-20T19:06:56.350Z,23.05
2022-11-20T19:10:03.418Z,25.90
2022-11-20T19:13:07.270Z,29.55
2022-11-20T19:16:18.060Z,25.27
2022-11-20T19:19:21.587Z,26.08
2022-11-20T19:22:24.473Z,26.50
2022-11-20T19:25:27.691Z,27.62
2022-11-20T19:28:34.747Z,27.37
2022-11-20T19:31:37.853Z,27.13
2022-11-20T19:34:40.586Z,27.40
2022-11-20T19:37:43.726Z,27.00
2022-11-20T19:40:46.302Z,27.37
2022-11-20T19:43:50.042Z,29.90
2022-11-20T19:46:52.727Z,32.20
2022-11-20T19:49:55.870Z,26.02
2022-11-20T19:52:58.843Z,26.37
2022-11-20T19:56:02.324Z,25.77
2022-11-20T19:59:04.925Z,26.10
2022-11-20T20:02:11.450Z,25.83
2022-11-20T20:05:14.375Z,27.25
2022-11-20T20:08:17.321Z,25.30
2022-11-20T20:11:21.420Z,24.92
2022-11-20T20:14:24.305Z,24.77
2022-11-20T20:17:27.130Z,24.10
2022-11-20T20:20:30.045Z,24.20
2022-11-20T20:23:33.157Z,25.42
2022-11-20T20:26:36.146Z,22.75
2022-11-20T20:29:39.094Z,23.23
2022-11-20T20:32:41.941Z,21.85
2022-11-20T20:35:45.339Z,21.80
2022-11-20T20:38:48.411Z,22.77
2022-11-20T20:41:51.247Z,22.90
2022-11-20T20:45:11.151Z,22.80
2022-11-20T20:48:18.080Z,27.67
2022-11-20T20:51:21.257Z,24.83
2022-11-20T20:54:24.338Z,24.17
2022-11-20T20:57:28.659Z,26.15
2022-11-20T21:00:31.562Z,24.77
2022-11-20T21:03:36.543Z,26.73
2022-11-20T21:06:39.380Z,26.35
2022-11-20T21:09:42.199Z,26.60
2022-11-20T21:12:44.999Z,35.25
2022-11-20T21:15:50.198Z,33.40
2022-11-20T21:18:53.011Z,35.30
2022-11-20T21:21:58.824Z,29.02
2022-11-20T21:25:01.676Z,28.52
2022-11-20T21:28:04.460Z,28.80
2022-11-20T21:31:10.410Z,28.00
2022-11-20T21:34:14.379Z,28.80
2022-11-20T21:37:17.173Z,28.48
2022-11-20T21:40:20.616Z,27.95
2022-11-20T21:43:23.397Z,28.45
2022-11-20T21:46:26.486Z,28.65
2022-11-20T21:49:29.389Z,26.60
2022-11-20T21:52:32.207Z,27.35
2022-11-20T21:55:35.317Z,28.38
2022-11-20T21:58:40.227Z,26.98
2022-11-20T22:01:43.201Z,28.70
2022-11-20T22:04:46.290Z,28.25
2022-11-20T22:07:48.749Z,27.20
2022-11-20T22:10:55.932Z,27.58
2022-11-20T22:14:18.016Z,28.90
2022-11-20T22:17:41.299Z,26.92
2022-11-20T22:20:43.867Z,27.30
2022-11-20T22:23:47.167Z,26.37
2022-11-20T22:26:50.089Z,27.53
2022-11-20T22:32:56.446Z,25.40
2022-11-20T22:36:04.535Z,28.58
2022-11-20T22:39:07.370Z,33.67
2022-11-20T22:42:10.649Z,28.33
2022-11-20T22:45:14.093Z,26.05
2022-11-20T22:48:17.182Z,28.73
2022-11-20T22:51:22.605Z,27.55
2022-11-20T22:54:25.981Z,28.05
2022-11-20T23:00:32.460Z,27.00
2022-11-20T23:03:35.195Z,26.33
2022-11-20T23:06:38.887Z,29.42
2022-11-20T23:09:41.336Z,29.23
2022-11-20T23:12:44.426Z,29.83
2022-11-20T23:15:46.879Z,31.73
2022-11-20T23:18:58.331Z,28.80
2022-11-20T23:22:00.783Z,30.10
2022-11-20T23:25:04.094Z,30.52
2022-11-20T23:28:06.611Z,31.62
2022-11-20T23:31:10.878Z,34.38
2022-11-20T23:34:13.372Z,35.55
2022-11-20T23:37:16.421Z,36.42
2022-11-20T23:40:18.974Z,36.38
2022-11-20T23:43:22.741Z,34.53
2022-11-20T23:46:25.734Z,37.20
2022-11-20T23:49:28.748Z,35.60
2022-11-20T23:52:31.272Z,35.03
2022-11-20T23:55:34.748Z,34.90
2022-11-20T23:58:38.617Z,34.05
